sensor_id;sensor_type;location;lat;lon;timestamp;P1;durP1;ratioP1;P2;durP2;ratioP2
71038;SDS011;58692;43.212;27.908;2022-08-21T00:00:06;23.42;;;15.50;;
71038;SDS011;58692;43.212;27.908;2022-08-21T00:02:34;20.75;;;15.10;;
71038;SDS011;58692;43.212;27.908;2022-08-21T00:05:00;23.50;;;16.53;;
71038;SDS011;58692;43.212;27.908;2022-08-21T00:07:26;22.55;;;16.45;;
71038;SDS011;58692;43.212;27.908;2022-08-21T00:09:51;26.50;;;15.53;;
71038;SDS011;58692;43.212;27.908;2022-08-21T00:12:17;21.55;;;16.35;;
71038;SDS011;58692;43.212;27.908;2022-08-21T00:14:43;20.05;;;15.68;;
71038;SDS011;58692;43.212;27.908;2022-08-21T00:17:09;23.67;;;16.27;;
71038;SDS011;58692;43.212;27.908;2022-08-21T00:19:34;22.38;;;15.95;;
71038;SDS011;58692;43.212;27.908;2022-08-21T00:22:00;24.10;;;16.00;;
71038;SDS011;58692;43.212;27.908;2022-08-21T00:24:26;22.07;;;15.70;;
71038;SDS011;58692;43.212;27.908;2022-08-21T00:26:52;21.23;;;15.77;;
71038;SDS011;58692;43.212;27.908;2022-08-21T00:29:18;22.20;;;15.82;;
71038;SDS011;58692;43.212;27.908;2022-08-21T00:31:44;19.50;;;14.88;;
71038;SDS011;58692;43.212;27.908;2022-08-21T00:34:11;20.67;;;15.73;;
71038;SDS011;58692;43.212;27.908;2022-08-21T00:36:37;23.10;;;15.80;;
71038;SDS011;58692;43.212;27.908;2022-08-21T00:39:04;24.92;;;16.17;;
71038;SDS011;58692;43.212;27.908;2022-08-21T00:41:33;23.13;;;16.03;;
71038;SDS011;58692;43.212;27.908;2022-08-21T00:44:01;28.02;;;16.83;;
71038;SDS011;58692;43.212;27.908;2022-08-21T00:46:28;22.63;;;16.27;;
71038;SDS011;58692;43.212;27.908;2022-08-21T00:48:55;21.33;;;15.88;;
71038;SDS011;58692;43.212;27.908;2022-08-21T00:51:24;21.77;;;15.93;;
71038;SDS011;58692;43.212;27.908;2022-08-21T00:53:54;20.90;;;14.97;;
71038;SDS011;58692;43.212;27.908;2022-08-21T00:56:22;22.60;;;15.68;;
71038;SDS011;58692;43.212;27.908;2022-08-21T00:58:49;21.23;;;16.48;;
71038;SDS011;58692;43.212;27.908;2022-08-21T01:01:16;24.30;;;15.43;;
71038;SDS011;58692;43.212;27.908;2022-08-21T01:03:42;20.90;;;16.20;;
71038;SDS011;58692;43.212;27.908;2022-08-21T01:06:07;21.65;;;16.52;;
71038;SDS011;58692;43.212;27.908;2022-08-21T01:08:34;24.52;;;16.52;;
71038;SDS011;58692;43.212;27.908;2022-08-21T01:11:00;22.47;;;17.10;;
71038;SDS011;58692;43.212;27.908;2022-08-21T01:13:27;22.70;;;16.90;;
71038;SDS011;58692;43.212;27.908;2022-08-21T01:15:56;26.52;;;18.77;;
71038;SDS011;58692;43.212;27.908;2022-08-21T01:18:25;25.02;;;17.05;;
71038;SDS011;58692;43.212;27.908;2022-08-21T01:23:37;22.93;;;15.37;;
71038;SDS011;58692;43.212;27.908;2022-08-21T01:26:05;20.33;;;14.45;;
71038;SDS011;58692;43.212;27.908;2022-08-21T01:28:33;20.33;;;14.20;;
71038;SDS011;58692;43.212;27.908;2022-08-21T01:31:03;19.50;;;14.38;;
71038;SDS011;58692;43.212;27.908;2022-08-21T01:33:32;19.02;;;14.25;;
71038;SDS011;58692;43.212;27.908;2022-08-21T01:35:58;23.50;;;15.03;;
71038;SDS011;58692;43.212;27.908;2022-08-21T01:38:24;18.15;;;14.25;;
71038;SDS011;58692;43.212;27.908;2022-08-21T01:40:50;18.58;;;14.25;;
71038;SDS011;58692;43.212;27.908;2022-08-21T01:43:16;20.23;;;13.57;;
71038;SDS011;58692;43.212;27.908;2022-08-21T01:45:42;23.13;;;14.70;;
71038;SDS011;58692;43.212;27.908;2022-08-21T01:48:07;20.30;;;14.15;;
71038;SDS011;58692;43.212;27.908;2022-08-21T01:50:33;20.87;;;14.43;;
71038;SDS011;58692;43.212;27.908;2022-08-21T01:52:59;22.90;;;14.87;;
71038;SDS011;58692;43.212;27.908;2022-08-21T01:55:24;20.92;;;14.88;;
71038;SDS011;58692;43.212;27.908;2022-08-21T01:57:50;23.67;;;15.53;;
71038;SDS011;58692;43.212;27.908;2022-08-21T02:00:17;23.43;;;16.10;;
71038;SDS011;58692;43.212;27.908;2022-08-21T02:02:44;23.02;;;15.60;;
71038;SDS011;58692;43.212;27.908;2022-08-21T02:05:11;25.27;;;15.73;;
71038;SDS011;58692;43.212;27.908;2022-08-21T02:07:38;23.73;;;15.15;;
71038;SDS011;58692;43.212;27.908;2022-08-21T02:10:06;21.40;;;15.40;;
71038;SDS011;58692;43.212;27.908;2022-08-21T02:12:32;21.77;;;15.10;;
71038;SDS011;58692;43.212;27.908;2022-08-21T02:14:58;21.92;;;15.82;;
71038;SDS011;58692;43.212;27.908;2022-08-21T02:17:24;22.00;;;14.70;;
71038;SDS011;58692;43.212;27.908;2022-08-21T02:19:49;24.10;;;15.37;;
71038;SDS011;58692;43.212;27.908;2022-08-21T02:22:15;21.02;;;14.57;;
71038;SDS011;58692;43.212;27.908;2022-08-21T02:24:40;24.90;;;15.40;;
71038;SDS011;58692;43.212;27.908;2022-08-21T02:27:06;23.92;;;16.20;;
71038;SDS011;58692;43.212;27.908;2022-08-21T02:29:31;23.60;;;17.23;;
71038;SDS011;58692;43.212;27.908;2022-08-21T02:31:57;27.93;;;18.53;;
71038;SDS011;58692;43.212;27.908;2022-08-21T02:34:22;27.05;;;19.00;;
71038;SDS011;58692;43.212;27.908;2022-08-21T02:36:48;33.17;;;20.17;;
71038;SDS011;58692;43.212;27.908;2022-08-21T02:39:14;29.65;;;20.80;;
71038;SDS011;58692;43.212;27.908;2022-08-21T02:41:39;30.70;;;22.80;;
71038;SDS011;58692;43.212;27.908;2022-08-21T02:44:05;35.03;;;25.73;;
71038;SDS011;58692;43.212;27.908;2022-08-21T02:46:30;34.10;;;25.80;;
71038;SDS011;58692;43.212;27.908;2022-08-21T02:48:56;36.87;;;26.03;;
71038;SDS011;58692;43.212;27.908;2022-08-21T02:51:22;37.05;;;26.70;;
71038;SDS011;58692;43.212;27.908;2022-08-21T02:53:48;36.23;;;24.50;;
71038;SDS011;58692;43.212;27.908;2022-08-21T02:56:16;35.03;;;24.67;;
71038;SDS011;58692;43.212;27.908;2022-08-21T02:58:45;38.30;;;23.08;;
71038;SDS011;58692;43.212;27.908;2022-08-21T03:01:14;37.22;;;24.70;;
71038;SDS011;58692;43.212;27.908;2022-08-21T03:03:41;34.20;;;23.23;;
71038;SDS011;58692;43.212;27.908;2022-08-21T03:06:08;37.58;;;25.60;;
71038;SDS011;58692;43.212;27.908;2022-08-21T03:08:37;41.15;;;23.83;;
71038;SDS011;58692;43.212;27.908;2022-08-21T03:11:03;37.58;;;23.20;;
71038;SDS011;58692;43.212;27.908;2022-08-21T03:13:29;36.60;;;22.55;;
71038;SDS011;58692;43.212;27.908;2022-08-21T03:15:55;30.20;;;21.83;;
71038;SDS011;58692;43.212;27.908;2022-08-21T03:18:21;28.30;;;21.25;;
71038;SDS011;58692;43.212;27.908;2022-08-21T03:20:47;33.05;;;22.40;;
71038;SDS011;58692;43.212;27.908;2022-08-21T03:23:14;32.93;;;21.43;;
71038;SDS011;58692;43.212;27.908;2022-08-21T03:25:40;31.45;;;21.40;;
71038;SDS011;58692;43.212;27.908;2022-08-21T03:28:09;34.10;;;21.08;;
71038;SDS011;58692;43.212;27.908;2022-08-21T03:30:37;32.50;;;20.70;;
71038;SDS011;58692;43.212;27.908;2022-08-21T03:33:02;30.40;;;20.30;;
71038;SDS011;58692;43.212;27.908;2022-08-21T03:35:28;34.03;;;23.95;;
71038;SDS011;58692;43.212;27.908;2022-08-21T03:37:54;34.00;;;24.77;;
71038;SDS011;58692;43.212;27.908;2022-08-21T03:40:23;30.98;;;22.92;;
71038;SDS011;58692;43.212;27.908;2022-08-21T03:42:50;53.38;;;39.35;;
71038;SDS011;58692;43.212;27.908;2022-08-21T03:45:16;88.03;;;65.30;;
71038;SDS011;58692;43.212;27.908;2022-08-21T03:47:52;112.93;;;85.47;;
71038;SDS011;58692;43.212;27.908;2022-08-21T03:50:21;127.40;;;92.95;;
71038;SDS011;58692;43.212;27.908;2022-08-21T03:52:48;122.80;;;88.70;;
71038;SDS011;58692;43.212;27.908;2022-08-21T03:55:14;98.70;;;72.53;;
71038;SDS011;58692;43.212;27.908;2022-08-21T03:57:40;67.03;;;48.60;;
71038;SDS011;58692;43.212;27.908;2022-08-21T04:00:05;31.13;;;23.37;;
71038;SDS011;58692;43.212;27.908;2022-08-21T04:02:33;32.80;;;21.55;;
71038;SDS011;58692;43.212;27.908;2022-08-21T04:04:59;29.83;;;21.80;;
71038;SDS011;58692;43.212;27.908;2022-08-21T04:07:24;30.45;;;21.98;;
71038;SDS011;58692;43.212;27.908;2022-08-21T04:09:50;51.97;;;39.47;;
71038;SDS011;58692;43.212;27.908;2022-08-21T04:12:15;89.77;;;68.67;;
71038;SDS011;58692;43.212;27.908;2022-08-21T04:14:41;80.93;;;61.17;;
71038;SDS011;58692;43.212;27.908;2022-08-21T04:17:06;47.93;;;33.23;;
71038;SDS011;58692;43.212;27.908;2022-08-21T04:19:32;37.80;;;29.47;;
71038;SDS011;58692;43.212;27.908;2022-08-21T04:21:57;37.28;;;27.92;;
71038;SDS011;58692;43.212;27.908;2022-08-21T04:24:23;38.83;;;27.87;;
71038;SDS011;58692;43.212;27.908;2022-08-21T04:26:49;34.50;;;25.50;;
71038;SDS011;58692;43.212;27.908;2022-08-21T04:29:15;32.45;;;23.90;;
71038;SDS011;58692;43.212;27.908;2022-08-21T04:31:40;25.50;;;19.40;;
71038;SDS011;58692;43.212;27.908;2022-08-21T04:34:06;23.27;;;17.60;;
71038;SDS011;58692;43.212;27.908;2022-08-21T04:36:32;24.13;;;17.37;;
71038;SDS011;58692;43.212;27.908;2022-08-21T04:38:58;22.38;;;17.45;;
71038;SDS011;58692;43.212;27.908;2022-08-21T04:41:24;21.75;;;16.67;;
71038;SDS011;58692;43.212;27.908;2022-08-21T04:43:49;21.30;;;16.33;;
71038;SDS011;58692;43.212;27.908;2022-08-21T04:46:15;21.60;;;16.67;;
71038;SDS011;58692;43.212;27.908;2022-08-21T04:48:41;23.80;;;15.57;;
71038;SDS011;58692;43.212;27.908;2022-08-21T04:53:40;19.67;;;13.68;;
71038;SDS011;58692;43.212;27.908;2022-08-21T04:56:12;21.27;;;13.87;;
71038;SDS011;58692;43.212;27.908;2022-08-21T04:58:44;22.20;;;16.20;;
71038;SDS011;58692;43.212;27.908;2022-08-21T05:01:11;19.65;;;15.35;;
71038;SDS011;58692;43.212;27.908;2022-08-21T05:03:41;19.17;;;14.30;;
71038;SDS011;58692;43.212;27.908;2022-08-21T05:06:08;19.40;;;15.07;;
71038;SDS011;58692;43.212;27.908;2022-08-21T05:08:35;19.65;;;14.68;;
71038;SDS011;58692;43.212;27.908;2022-08-21T05:11:03;17.58;;;12.95;;
71038;SDS011;58692;43.212;27.908;2022-08-21T05:13:29;19.75;;;12.75;;
71038;SDS011;58692;43.212;27.908;2022-08-21T05:15:55;19.25;;;11.60;;
71038;SDS011;58692;43.212;27.908;2022-08-21T05:18:21;17.27;;;11.73;;
71038;SDS011;58692;43.212;27.908;2022-08-21T05:20:47;13.48;;;10.43;;
71038;SDS011;58692;43.212;27.908;2022-08-21T05:23:13;17.17;;;13.53;;
71038;SDS011;58692;43.212;27.908;2022-08-21T05:25:39;17.67;;;13.82;;
71038;SDS011;58692;43.212;27.908;2022-08-21T05:28:05;19.92;;;14.45;;
71038;SDS011;58692;43.212;27.908;2022-08-21T05:30:31;22.37;;;16.97;;
71038;SDS011;58692;43.212;27.908;2022-08-21T05:33:00;21.75;;;16.27;;
71038;SDS011;58692;43.212;27.908;2022-08-21T05:35:28;22.30;;;15.68;;
71038;SDS011;58692;43.212;27.908;2022-08-21T05:37:54;22.08;;;17.08;;
71038;SDS011;58692;43.212;27.908;2022-08-21T05:40:20;25.20;;;18.00;;
71038;SDS011;58692;43.212;27.908;2022-08-21T05:42:46;21.80;;;16.60;;
71038;SDS011;58692;43.212;27.908;2022-08-21T05:45:12;22.30;;;15.57;;
71038;SDS011;58692;43.212;27.908;2022-08-21T05:47:37;20.90;;;16.50;;
71038;SDS011;58692;43.212;27.908;2022-08-21T05:50:04;21.13;;;16.08;;
71038;SDS011;58692;43.212;27.908;2022-08-21T05:52:30;21.38;;;16.52;;
71038;SDS011;58692;43.212;27.908;2022-08-21T05:54:56;20.73;;;16.00;;
71038;SDS011;58692;43.212;27.908;2022-08-21T05:57:21;23.23;;;16.70;;
71038;SDS011;58692;43.212;27.908;2022-08-21T05:59:48;22.58;;;15.68;;
71038;SDS011;58692;43.212;27.908;2022-08-21T06:02:16;21.30;;;16.15;;
71038;SDS011;58692;43.212;27.908;2022-08-21T06:04:43;19.38;;;13.57;;
71038;SDS011;58692;43.212;27.908;2022-08-21T06:07:08;18.53;;;14.43;;
71038;SDS011;58692;43.212;27.908;2022-08-21T06:09:34;21.67;;;16.88;;
71038;SDS011;58692;43.212;27.908;2022-08-21T06:12:04;25.30;;;18.23;;
71038;SDS011;58692;43.212;27.908;2022-08-21T06:14:31;29.45;;;20.60;;
71038;SDS011;58692;43.212;27.908;2022-08-21T06:17:04;28.48;;;20.35;;
71038;SDS011;58692;43.212;27.908;2022-08-21T06:19:33;28.63;;;19.20;;
71038;SDS011;58692;43.212;27.908;2022-08-21T06:21:59;33.10;;;21.87;;
71038;SDS011;58692;43.212;27.908;2022-08-21T06:24:25;30.90;;;21.15;;
71038;SDS011;58692;43.212;27.908;2022-08-21T06:26:51;27.10;;;18.40;;
71038;SDS011;58692;43.212;27.908;2022-08-21T06:29:17;27.93;;;21.10;;
71038;SDS011;58692;43.212;27.908;2022-08-21T06:31:45;28.95;;;20.35;;
71038;SDS011;58692;43.212;27.908;2022-08-21T06:34:11;25.40;;;18.13;;
71038;SDS011;58692;43.212;27.908;2022-08-21T06:36:38;19.20;;;14.30;;
71038;SDS011;58692;43.212;27.908;2022-08-21T06:39:03;20.20;;;16.50;;
71038;SDS011;58692;43.212;27.908;2022-08-21T06:41:30;22.02;;;15.70;;
71038;SDS011;58692;43.212;27.908;2022-08-21T06:43:56;20.80;;;14.80;;
71038;SDS011;58692;43.212;27.908;2022-08-21T06:46:23;21.95;;;14.18;;
71038;SDS011;58692;43.212;27.908;2022-08-21T06:48:50;17.38;;;13.30;;
71038;SDS011;58692;43.212;27.908;2022-08-21T06:51:15;19.20;;;13.20;;
71038;SDS011;58692;43.212;27.908;2022-08-21T06:53:41;15.73;;;12.53;;
71038;SDS011;58692;43.212;27.908;2022-08-21T06:56:07;16.95;;;11.30;;
71038;SDS011;58692;43.212;27.908;2022-08-21T06:58:33;12.38;;;8.95;;
71038;SDS011;58692;43.212;27.908;2022-08-21T07:00:59;11.27;;;8.70;;
71038;SDS011;58692;43.212;27.908;2022-08-21T07:03:25;13.23;;;8.88;;
71038;SDS011;58692;43.212;27.908;2022-08-21T07:05:53;11.77;;;7.97;;
71038;SDS011;58692;43.212;27.908;2022-08-21T07:08:19;12.80;;;8.27;;
71038;SDS011;58692;43.212;27.908;2022-08-21T07:10:46;12.15;;;8.43;;
71038;SDS011;58692;43.212;27.908;2022-08-21T07:13:12;12.38;;;8.25;;
71038;SDS011;58692;43.212;27.908;2022-08-21T07:15:38;11.55;;;8.45;;
71038;SDS011;58692;43.212;27.908;2022-08-21T07:18:04;10.90;;;7.67;;
71038;SDS011;58692;43.212;27.908;2022-08-21T07:20:30;11.05;;;7.80;;
71038;SDS011;58692;43.212;27.908;2022-08-21T07:22:58;11.73;;;8.77;;
71038;SDS011;58692;43.212;27.908;2022-08-21T07:25:26;10.50;;;7.90;;
71038;SDS011;58692;43.212;27.908;2022-08-21T07:27:52;13.52;;;8.15;;
71038;SDS011;58692;43.212;27.908;2022-08-21T07:30:18;12.02;;;7.90;;
71038;SDS011;58692;43.212;27.908;2022-08-21T07:32:44;10.52;;;7.32;;
71038;SDS011;58692;43.212;27.908;2022-08-21T07:35:09;10.20;;;7.60;;
71038;SDS011;58692;43.212;27.908;2022-08-21T07:37:35;10.50;;;7.78;;
71038;SDS011;58692;43.212;27.908;2022-08-21T07:40:00;10.43;;;7.50;;
71038;SDS011;58692;43.212;27.908;2022-08-21T07:42:26;10.40;;;6.97;;
71038;SDS011;58692;43.212;27.908;2022-08-21T07:44:51;9.98;;;6.97;;
71038;SDS011;58692;43.212;27.908;2022-08-21T07:47:17;10.60;;;7.07;;
71038;SDS011;58692;43.212;27.908;2022-08-21T07:49:42;10.23;;;6.60;;
71038;SDS011;58692;43.212;27.908;2022-08-21T07:52:08;9.00;;;6.40;;
71038;SDS011;58692;43.212;27.908;2022-08-21T07:54:34;9.30;;;6.10;;
71038;SDS011;58692;43.212;27.908;2022-08-21T07:57:00;11.35;;;6.32;;
71038;SDS011;58692;43.212;27.908;2022-08-21T07:59:26;10.95;;;6.63;;
71038;SDS011;58692;43.212;27.908;2022-08-21T08:01:52;10.30;;;6.87;;
71038;SDS011;58692;43.212;27.908;2022-08-21T08:04:17;10.93;;;7.03;;
71038;SDS011;58692;43.212;27.908;2022-08-21T08:06:43;10.17;;;6.63;;
71038;SDS011;58692;43.212;27.908;2022-08-21T08:09:08;11.97;;;7.03;;
71038;SDS011;58692;43.212;27.908;2022-08-21T08:11:34;13.40;;;6.90;;
71038;SDS011;58692;43.212;27.908;2022-08-21T08:14:02;10.05;;;6.53;;
71038;SDS011;58692;43.212;27.908;2022-08-21T08:16:28;11.33;;;6.40;;
71038;SDS011;58692;43.212;27.908;2022-08-21T08:18:54;11.20;;;6.38;;
71038;SDS011;58692;43.212;27.908;2022-08-21T08:21:20;9.98;;;6.32;;
71038;SDS011;58692;43.212;27.908;2022-08-21T08:23:47;11.10;;;6.17;;
71038;SDS011;58692;43.212;27.908;2022-08-21T08:26:13;9.20;;;6.45;;
71038;SDS011;58692;43.212;27.908;2022-08-21T08:28:40;11.10;;;6.40;;
71038;SDS011;58692;43.212;27.908;2022-08-21T08:31:06;9.32;;;5.95;;
71038;SDS011;58692;43.212;27.908;2022-08-21T08:33:32;12.00;;;7.00;;
71038;SDS011;58692;43.212;27.908;2022-08-21T08:35:57;9.63;;;6.50;;
71038;SDS011;58692;43.212;27.908;2022-08-21T08:38:23;9.85;;;6.38;;
71038;SDS011;58692;43.212;27.908;2022-08-21T08:43:42;10.43;;;7.07;;
71038;SDS011;58692;43.212;27.908;2022-08-21T08:46:14;11.02;;;6.75;;
71038;SDS011;58692;43.212;27.908;2022-08-21T08:54:19;10.95;;;7.47;;
71038;SDS011;58692;43.212;27.908;2022-08-21T08:57:00;12.77;;;7.77;;
71038;SDS011;58692;43.212;27.908;2022-08-21T08:59:39;13.63;;;7.90;;
71038;SDS011;58692;43.212;27.908;2022-08-21T09:02:09;12.57;;;7.65;;
71038;SDS011;58692;43.212;27.908;2022-08-21T09:04:36;12.13;;;7.85;;
71038;SDS011;58692;43.212;27.908;2022-08-21T09:07:09;12.07;;;8.00;;
71038;SDS011;58692;43.212;27.908;2022-08-21T09:12:25;11.57;;;8.05;;
71038;SDS011;58692;43.212;27.908;2022-08-21T09:15:01;12.55;;;8.00;;
71038;SDS011;58692;43.212;27.908;2022-08-21T09:20:23;12.88;;;8.10;;
71038;SDS011;58692;43.212;27.908;2022-08-21T09:25:43;12.63;;;8.82;;
71038;SDS011;58692;43.212;27.908;2022-08-21T09:28:17;17.40;;;8.35;;
71038;SDS011;58692;43.212;27.908;2022-08-21T09:30:43;16.20;;;8.50;;
71038;SDS011;58692;43.212;27.908;2022-08-21T09:33:11;15.55;;;8.73;;
71038;SDS011;58692;43.212;27.908;2022-08-21T09:35:47;13.48;;;8.82;;
71038;SDS011;58692;43.212;27.908;2022-08-21T09:41:03;14.57;;;8.45;;
71038;SDS011;58692;43.212;27.908;2022-08-21T09:43:31;15.50;;;8.35;;
71038;SDS011;58692;43.212;27.908;2022-08-21T09:46:02;13.45;;;8.15;;
71038;SDS011;58692;43.212;27.908;2022-08-21T09:48:27;13.82;;;8.55;;
71038;SDS011;58692;43.212;27.908;2022-08-21T09:51:05;12.50;;;8.70;;
71038;SDS011;58692;43.212;27.908;2022-08-21T09:53:32;12.93;;;9.07;;
71038;SDS011;58692;43.212;27.908;2022-08-21T09:56:02;12.45;;;8.60;;
71038;SDS011;58692;43.212;27.908;2022-08-21T09:58:46;16.50;;;9.35;;
71038;SDS011;58692;43.212;27.908;2022-08-21T10:01:18;14.98;;;9.00;;
71038;SDS011;58692;43.212;27.908;2022-08-21T10:03:46;13.40;;;8.90;;
71038;SDS011;58692;43.212;27.908;2022-08-21T10:06:21;14.75;;;9.38;;
71038;SDS011;58692;43.212;27.908;2022-08-21T10:08:49;16.40;;;9.57;;
71038;SDS011;58692;43.212;27.908;2022-08-21T10:11:15;16.70;;;9.70;;
71038;SDS011;58692;43.212;27.908;2022-08-21T10:13:52;16.05;;;9.20;;
71038;SDS011;58692;43.212;27.908;2022-08-21T10:19:43;13.90;;;9.13;;
71038;SDS011;58692;43.212;27.908;2022-08-21T10:24:43;15.80;;;9.48;;
71038;SDS011;58692;43.212;27.908;2022-08-21T10:27:14;13.23;;;8.82;;
71038;SDS011;58692;43.212;27.908;2022-08-21T10:35:13;14.80;;;9.30;;
71038;SDS011;58692;43.212;27.908;2022-08-21T10:43:33;14.25;;;9.90;;
71038;SDS011;58692;43.212;27.908;2022-08-21T10:46:18;13.48;;;9.95;;
71038;SDS011;58692;43.212;27.908;2022-08-21T10:49:14;14.03;;;10.40;;
71038;SDS011;58692;43.212;27.908;2022-08-21T10:54:15;15.37;;;11.13;;
71038;SDS011;58692;43.212;27.908;2022-08-21T10:56:47;14.77;;;11.27;;
71038;SDS011;58692;43.212;27.908;2022-08-21T11:07:06;14.82;;;11.00;;
71038;SDS011;58692;43.212;27.908;2022-08-21T11:09:37;20.53;;;10.80;;
71038;SDS011;58692;43.212;27.908;2022-08-21T11:12:09;15.18;;;10.90;;
71038;SDS011;58692;43.212;27.908;2022-08-21T11:14:54;14.95;;;9.95;;
71038;SDS011;58692;43.212;27.908;2022-08-21T11:17:35;15.93;;;10.65;;
71038;SDS011;58692;43.212;27.908;2022-08-21T11:20:10;14.35;;;10.10;;
71038;SDS011;58692;43.212;27.908;2022-08-21T11:22:44;14.20;;;11.10;;
71038;SDS011;58692;43.212;27.908;2022-08-21T11:25:17;15.93;;;10.50;;
71038;SDS011;58692;43.212;27.908;2022-08-21T11:27:48;14.65;;;10.35;;
71038;SDS011;58692;43.212;27.908;2022-08-21T11:30:19;15.73;;;10.30;;
71038;SDS011;58692;43.212;27.908;2022-08-21T11:32:57;14.15;;;10.85;;
71038;SDS011;58692;43.212;27.908;2022-08-21T11:51:44;15.07;;;10.43;;
71038;SDS011;58692;43.212;27.908;2022-08-21T11:57:13;13.63;;;9.90;;
71038;SDS011;58692;43.212;27.908;2022-08-21T12:02:31;15.57;;;10.77;;
71038;SDS011;58692;43.212;27.908;2022-08-21T12:04:59;16.83;;;10.82;;
71038;SDS011;58692;43.212;27.908;2022-08-21T12:09:57;15.32;;;10.50;;
71038;SDS011;58692;43.212;27.908;2022-08-21T12:15:03;16.33;;;9.93;;
71038;SDS011;58692;43.212;27.908;2022-08-21T12:17:53;13.18;;;9.50;;
71038;SDS011;58692;43.212;27.908;2022-08-21T12:20:26;12.40;;;9.63;;
71038;SDS011;58692;43.212;27.908;2022-08-21T12:25:44;13.45;;;10.40;;
71038;SDS011;58692;43.212;27.908;2022-08-21T12:28:23;13.73;;;10.00;;
71038;SDS011;58692;43.212;27.908;2022-08-21T12:30:51;15.27;;;10.73;;
71038;SDS011;58692;43.212;27.908;2022-08-21T12:38:49;14.48;;;9.82;;
71038;SDS011;58692;43.212;27.908;2022-08-21T12:41:25;14.13;;;10.60;;
71038;SDS011;58692;43.212;27.908;2022-08-21T12:43:59;16.08;;;10.10;;
71038;SDS011;58692;43.212;27.908;2022-08-21T12:46:34;13.38;;;9.80;;
71038;SDS011;58692;43.212;27.908;2022-08-21T12:54:24;12.73;;;9.47;;
71038;SDS011;58692;43.212;27.908;2022-08-21T12:56:56;13.65;;;9.68;;
71038;SDS011;58692;43.212;27.908;2022-08-21T12:59:25;13.65;;;9.60;;
71038;SDS011;58692;43.212;27.908;2022-08-21T13:01:51;14.87;;;9.87;;
71038;SDS011;58692;43.212;27.908;2022-08-21T13:04:22;13.82;;;9.73;;
71038;SDS011;58692;43.212;27.908;2022-08-21T13:06:59;13.50;;;9.27;;
71038;SDS011;58692;43.212;27.908;2022-08-21T13:09:26;13.60;;;9.50;;
71038;SDS011;58692;43.212;27.908;2022-08-21T13:11:54;17.75;;;10.32;;
71038;SDS011;58692;43.212;27.908;2022-08-21T13:14:23;15.53;;;9.63;;
71038;SDS011;58692;43.212;27.908;2022-08-21T13:16:57;14.77;;;9.55;;
71038;SDS011;58692;43.212;27.908;2022-08-21T13:19:25;14.70;;;10.15;;
71038;SDS011;58692;43.212;27.908;2022-08-21T13:21:51;14.50;;;10.00;;
71038;SDS011;58692;43.212;27.908;2022-08-21T13:26:46;12.82;;;9.50;;
71038;SDS011;58692;43.212;27.908;2022-08-21T13:29:14;17.08;;;10.13;;
71038;SDS011;58692;43.212;27.908;2022-08-21T13:31:46;14.60;;;10.00;;
71038;SDS011;58692;43.212;27.908;2022-08-21T13:34:20;13.65;;;10.32;;
71038;SDS011;58692;43.212;27.908;2022-08-21T13:36:51;15.43;;;9.53;;
71038;SDS011;58692;43.212;27.908;2022-08-21T13:39:19;13.48;;;9.43;;
71038;SDS011;58692;43.212;27.908;2022-08-21T13:41:48;13.77;;;9.88;;
71038;SDS011;58692;43.212;27.908;2022-08-21T13:44:17;12.95;;;9.15;;
71038;SDS011;58692;43.212;27.908;2022-08-21T13:46:46;12.43;;;9.77;;
71038;SDS011;58692;43.212;27.908;2022-08-21T13:49:14;13.87;;;9.80;;
71038;SDS011;58692;43.212;27.908;2022-08-21T13:51:42;16.25;;;9.57;;
71038;SDS011;58692;43.212;27.908;2022-08-21T13:54:22;14.32;;;9.48;;
71038;SDS011;58692;43.212;27.908;2022-08-21T13:56:52;12.95;;;9.60;;
71038;SDS011;58692;43.212;27.908;2022-08-21T14:04:51;13.93;;;10.43;;
71038;SDS011;58692;43.212;27.908;2022-08-21T14:07:24;17.00;;;9.80;;
71038;SDS011;58692;43.212;27.908;2022-08-21T14:10:04;13.68;;;9.73;;
71038;SDS011;58692;43.212;27.908;2022-08-21T14:12:36;15.77;;;10.13;;
71038;SDS011;58692;43.212;27.908;2022-08-21T14:15:07;14.23;;;9.57;;
71038;SDS011;58692;43.212;27.908;2022-08-21T14:17:35;16.17;;;10.00;;
71038;SDS011;58692;43.212;27.908;2022-08-21T14:20:03;14.65;;;10.25;;
71038;SDS011;58692;43.212;27.908;2022-08-21T14:22:43;15.63;;;11.25;;
71038;SDS011;58692;43.212;27.908;2022-08-21T14:25:11;18.98;;;9.70;;
71038;SDS011;58692;43.212;27.908;2022-08-21T14:27:48;17.07;;;10.40;;
71038;SDS011;58692;43.212;27.908;2022-08-21T14:30:26;13.48;;;9.77;;
71038;SDS011;58692;43.212;27.908;2022-08-21T14:32:54;14.85;;;9.82;;
71038;SDS011;58692;43.212;27.908;2022-08-21T14:35:21;19.70;;;11.02;;
71038;SDS011;58692;43.212;27.908;2022-08-21T14:37:47;15.87;;;10.00;;
71038;SDS011;58692;43.212;27.908;2022-08-21T14:40:15;13.05;;;10.00;;
71038;SDS011;58692;43.212;27.908;2022-08-21T14:42:42;14.23;;;10.20;;
71038;SDS011;58692;43.212;27.908;2022-08-21T14:45:13;15.10;;;10.13;;
71038;SDS011;58692;43.212;27.908;2022-08-21T14:47:41;15.05;;;10.68;;
71038;SDS011;58692;43.212;27.908;2022-08-21T14:50:08;13.23;;;9.43;;
71038;SDS011;58692;43.212;27.908;2022-08-21T14:52:35;15.68;;;10.00;;
71038;SDS011;58692;43.212;27.908;2022-08-21T14:55:02;15.20;;;10.10;;
71038;SDS011;58692;43.212;27.908;2022-08-21T14:57:29;15.77;;;9.43;;
71038;SDS011;58692;43.212;27.908;2022-08-21T14:59:57;14.88;;;10.00;;
71038;SDS011;58692;43.212;27.908;2022-08-21T15:02:24;15.97;;;9.70;;
71038;SDS011;58692;43.212;27.908;2022-08-21T15:04:50;15.65;;;10.25;;
71038;SDS011;58692;43.212;27.908;2022-08-21T15:07:15;13.68;;;10.05;;
71038;SDS011;58692;43.212;27.908;2022-08-21T15:09:41;14.17;;;10.70;;
71038;SDS011;58692;43.212;27.908;2022-08-21T15:12:07;18.40;;;9.57;;
71038;SDS011;58692;43.212;27.908;2022-08-21T15:14:34;14.23;;;9.60;;
71038;SDS011;58692;43.212;27.908;2022-08-21T15:17:03;14.98;;;9.77;;
71038;SDS011;58692;43.212;27.908;2022-08-21T15:19:31;18.95;;;10.98;;
71038;SDS011;58692;43.212;27.908;2022-08-21T15:21:57;13.52;;;10.27;;
71038;SDS011;58692;43.212;27.908;2022-08-21T15:24:23;16.93;;;10.50;;
71038;SDS011;58692;43.212;27.908;2022-08-21T15:26:49;17.25;;;10.82;;
71038;SDS011;58692;43.212;27.908;2022-08-21T15:29:15;15.13;;;11.00;;
71038;SDS011;58692;43.212;27.908;2022-08-21T15:34:23;17.40;;;10.52;;
71038;SDS011;58692;43.212;27.908;2022-08-21T15:36:51;16.60;;;10.30;;
71038;SDS011;58692;43.212;27.908;2022-08-21T15:39:16;17.23;;;10.33;;
71038;SDS011;58692;43.212;27.908;2022-08-21T15:41:43;14.40;;;9.45;;
71038;SDS011;58692;43.212;27.908;2022-08-21T15:44:10;14.80;;;9.70;;
71038;SDS011;58692;43.212;27.908;2022-08-21T15:46:37;16.38;;;10.85;;
71038;SDS011;58692;43.212;27.908;2022-08-21T15:49:04;16.80;;;10.13;;
71038;SDS011;58692;43.212;27.908;2022-08-21T15:51:30;13.23;;;9.87;;
71038;SDS011;58692;43.212;27.908;2022-08-21T15:53:56;18.23;;;11.10;;
71038;SDS011;58692;43.212;27.908;2022-08-21T15:56:24;17.77;;;10.37;;
71038;SDS011;58692;43.212;27.908;2022-08-21T15:58:58;15.97;;;10.50;;
71038;SDS011;58692;43.212;27.908;2022-08-21T16:01:27;15.35;;;10.70;;